sensor_id;sensor_type;location;lat;lon;timestamp;P1;durP1;ratioP1;P2;durP2;ratioP2
45206;SDS011;30950;53.086;21.576;2023-05-23T00:00:21;10.18;;;7.78;;
45206;SDS011;30950;53.086;21.576;2023-05-23T00:03:09;13.77;;;9.05;;
45206;SDS011;30950;53.086;21.576;2023-05-23T00:05:37;12.48;;;8.02;;
45206;SDS011;30950;53.086;21.576;2023-05-23T00:08:04;13.13;;;8.77;;
45206;SDS011;30950;53.086;21.576;2023-05-23T00:10:31;16.05;;;7.57;;
45206;SDS011;30950;53.086;21.576;2023-05-23T00:12:59;10.15;;;7.65;;
45206;SDS011;30950;53.086;21.576;2023-05-23T00:15:26;10.10;;;8.13;;
45206;SDS011;30950;53.086;21.576;2023-05-23T00:17:53;12.13;;;8.23;;
45206;SDS011;30950;53.086;21.576;2023-05-23T00:20:20;11.70;;;7.80;;
45206;SDS011;30950;53.086;21.576;2023-05-23T00:22:48;11.25;;;7.93;;
45206;SDS011;30950;53.086;21.576;2023-05-23T00:25:15;12.70;;;7.95;;
45206;SDS011;30950;53.086;21.576;2023-05-23T00:27:43;12.52;;;7.60;;
45206;SDS011;30950;53.086;21.576;2023-05-23T00:30:10;13.18;;;7.30;;
45206;SDS011;30950;53.086;21.576;2023-05-23T00:32:37;12.10;;;7.90;;
45206;SDS011;30950;53.086;21.576;2023-05-23T00:35:05;11.10;;;7.70;;
45206;SDS011;30950;53.086;21.576;2023-05-23T00:37:33;11.93;;;9.20;;
45206;SDS011;30950;53.086;21.576;2023-05-23T00:40:00;14.20;;;7.50;;
45206;SDS011;30950;53.086;21.576;2023-05-23T00:42:28;13.70;;;7.85;;
45206;SDS011;30950;53.086;21.576;2023-05-23T00:44:55;9.60;;;6.95;;
45206;SDS011;30950;53.086;21.576;2023-05-23T00:47:22;9.30;;;6.97;;
45206;SDS011;30950;53.086;21.576;2023-05-23T00:49:49;11.35;;;7.00;;
45206;SDS011;30950;53.086;21.576;2023-05-23T00:52:17;10.95;;;6.80;;
45206;SDS011;30950;53.086;21.576;2023-05-23T00:54:44;10.98;;;7.25;;
45206;SDS011;30950;53.086;21.576;2023-05-23T00:57:11;18.45;;;7.63;;
45206;SDS011;30950;53.086;21.576;2023-05-23T00:59:39;14.85;;;7.50;;
45206;SDS011;30950;53.086;21.576;2023-05-23T01:02:07;12.77;;;7.03;;
45206;SDS011;30950;53.086;21.576;2023-05-23T01:04:34;9.98;;;7.28;;
45206;SDS011;30950;53.086;21.576;2023-05-23T01:07:02;11.20;;;7.60;;
45206;SDS011;30950;53.086;21.576;2023-05-23T01:09:30;11.05;;;6.80;;
45206;SDS011;30950;53.086;21.576;2023-05-23T01:14:36;9.82;;;6.95;;
45206;SDS011;30950;53.086;21.576;2023-05-23T01:17:24;25.42;;;9.35;;
45206;SDS011;30950;53.086;21.576;2023-05-23T01:19:59;14.18;;;8.30;;
45206;SDS011;30950;53.086;21.576;2023-05-23T01:23:28;10.00;;;7.97;;
45206;SDS011;30950;53.086;21.576;2023-05-23T01:28:30;15.88;;;8.95;;
45206;SDS011;30950;53.086;21.576;2023-05-23T01:31:02;15.35;;;8.55;;
45206;SDS011;30950;53.086;21.576;2023-05-23T01:33:31;16.33;;;9.23;;
45206;SDS011;30950;53.086;21.576;2023-05-23T01:36:00;16.17;;;8.02;;
45206;SDS011;30950;53.086;21.576;2023-05-23T01:38:31;13.88;;;8.00;;
45206;SDS011;30950;53.086;21.576;2023-05-23T01:40:58;13.63;;;9.13;;
45206;SDS011;30950;53.086;21.576;2023-05-23T01:43:26;16.58;;;8.70;;
45206;SDS011;30950;53.086;21.576;2023-05-23T01:45:53;15.50;;;9.55;;
45206;SDS011;30950;53.086;21.576;2023-05-23T01:48:23;13.85;;;9.38;;
45206;SDS011;30950;53.086;21.576;2023-05-23T01:50:52;14.52;;;8.75;;
45206;SDS011;30950;53.086;21.576;2023-05-23T01:53:20;14.30;;;8.98;;
45206;SDS011;30950;53.086;21.576;2023-05-23T01:55:49;11.75;;;8.00;;
45206;SDS011;30950;53.086;21.576;2023-05-23T01:58:20;18.65;;;9.52;;
45206;SDS011;30950;53.086;21.576;2023-05-23T02:00:47;16.15;;;10.02;;
45206;SDS011;30950;53.086;21.576;2023-05-23T02:03:15;15.38;;;9.45;;
45206;SDS011;30950;53.086;21.576;2023-05-23T02:05:42;13.00;;;9.23;;
45206;SDS011;30950;53.086;21.576;2023-05-23T02:08:10;18.77;;;9.18;;
45206;SDS011;30950;53.086;21.576;2023-05-23T02:10:37;18.23;;;9.60;;
45206;SDS011;30950;53.086;21.576;2023-05-23T02:13:05;13.25;;;9.23;;
45206;SDS011;30950;53.086;21.576;2023-05-23T02:15:32;12.85;;;9.82;;
45206;SDS011;30950;53.086;21.576;2023-05-23T02:17:59;15.32;;;9.13;;
45206;SDS011;30950;53.086;21.576;2023-05-23T02:20:29;15.32;;;9.05;;
45206;SDS011;30950;53.086;21.576;2023-05-23T02:22:56;22.35;;;8.82;;
45206;SDS011;30950;53.086;21.576;2023-05-23T02:25:23;12.07;;;8.95;;
45206;SDS011;30950;53.086;21.576;2023-05-23T02:27:51;12.30;;;9.68;;
45206;SDS011;30950;53.086;21.576;2023-05-23T02:30:18;11.77;;;9.43;;
45206;SDS011;30950;53.086;21.576;2023-05-23T02:32:48;13.65;;;9.95;;
45206;SDS011;30950;53.086;21.576;2023-05-23T02:35:15;13.63;;;10.18;;
45206;SDS011;30950;53.086;21.576;2023-05-23T02:37:42;13.35;;;9.98;;
45206;SDS011;30950;53.086;21.576;2023-05-23T02:40:10;15.20;;;10.27;;
45206;SDS011;30950;53.086;21.576;2023-05-23T02:42:38;14.27;;;10.13;;
45206;SDS011;30950;53.086;21.576;2023-05-23T02:45:05;15.25;;;10.45;;
45206;SDS011;30950;53.086;21.576;2023-05-23T02:47:34;15.75;;;9.90;;
45206;SDS011;30950;53.086;21.576;2023-05-23T02:50:02;14.23;;;10.75;;
45206;SDS011;30950;53.086;21.576;2023-05-23T02:52:30;15.38;;;11.15;;
45206;SDS011;30950;53.086;21.576;2023-05-23T02:54:57;16.10;;;10.73;;
45206;SDS011;30950;53.086;21.576;2023-05-23T02:57:25;20.23;;;11.73;;
45206;SDS011;30950;53.086;21.576;2023-05-23T02:59:53;14.05;;;10.68;;
45206;SDS011;30950;53.086;21.576;2023-05-23T03:02:20;17.83;;;11.20;;
45206;SDS011;30950;53.086;21.576;2023-05-23T03:04:47;15.98;;;10.95;;
45206;SDS011;30950;53.086;21.576;2023-05-23T03:07:16;17.77;;;11.43;;
45206;SDS011;30950;53.086;21.576;2023-05-23T03:09:54;19.35;;;11.38;;
45206;SDS011;30950;53.086;21.576;2023-05-23T03:12:22;18.10;;;12.23;;
45206;SDS011;30950;53.086;21.576;2023-05-23T03:14:49;19.42;;;12.25;;
45206;SDS011;30950;53.086;21.576;2023-05-23T03:17:17;16.42;;;10.90;;
45206;SDS011;30950;53.086;21.576;2023-05-23T03:19:44;13.77;;;11.18;;
45206;SDS011;30950;53.086;21.576;2023-05-23T03:22:12;15.07;;;11.18;;
45206;SDS011;30950;53.086;21.576;2023-05-23T03:24:40;14.25;;;11.40;;
45206;SDS011;30950;53.086;21.576;2023-05-23T03:27:10;13.23;;;11.60;;
45206;SDS011;30950;53.086;21.576;2023-05-23T03:29:37;15.55;;;12.30;;
45206;SDS011;30950;53.086;21.576;2023-05-23T03:32:05;17.58;;;12.80;;
45206;SDS011;30950;53.086;21.576;2023-05-23T03:34:32;16.17;;;12.35;;
45206;SDS011;30950;53.086;21.576;2023-05-23T03:37:02;14.63;;;11.45;;
45206;SDS011;30950;53.086;21.576;2023-05-23T03:39:30;16.05;;;12.13;;
45206;SDS011;30950;53.086;21.576;2023-05-23T03:41:57;17.20;;;12.65;;
45206;SDS011;30950;53.086;21.576;2023-05-23T03:44:24;17.23;;;12.55;;
45206;SDS011;30950;53.086;21.576;2023-05-23T03:46:52;16.02;;;12.57;;
45206;SDS011;30950;53.086;21.576;2023-05-23T03:49:19;18.23;;;13.70;;
45206;SDS011;30950;53.086;21.576;2023-05-23T03:51:47;13.82;;;12.32;;
45206;SDS011;30950;53.086;21.576;2023-05-23T03:54:15;14.35;;;11.93;;
45206;SDS011;30950;53.086;21.576;2023-05-23T03:56:44;20.58;;;12.25;;
45206;SDS011;30950;53.086;21.576;2023-05-23T03:59:11;15.55;;;12.55;;
45206;SDS011;30950;53.086;21.576;2023-05-23T04:01:39;16.13;;;12.82;;
45206;SDS011;30950;53.086;21.576;2023-05-23T04:04:07;14.95;;;11.98;;
45206;SDS011;30950;53.086;21.576;2023-05-23T04:06:36;15.07;;;12.10;;
45206;SDS011;30950;53.086;21.576;2023-05-23T04:09:03;18.10;;;12.27;;
45206;SDS011;30950;53.086;21.576;2023-05-23T04:11:37;16.20;;;11.82;;
45206;SDS011;30950;53.086;21.576;2023-05-23T04:14:04;17.42;;;12.32;;
45206;SDS011;30950;53.086;21.576;2023-05-23T04:16:32;19.88;;;14.30;;
45206;SDS011;30950;53.086;21.576;2023-05-23T04:19:01;20.15;;;14.25;;
45206;SDS011;30950;53.086;21.576;2023-05-23T04:21:32;19.23;;;12.63;;
45206;SDS011;30950;53.086;21.576;2023-05-23T04:24:06;19.35;;;13.20;;
45206;SDS011;30950;53.086;21.576;2023-05-23T04:26:34;15.10;;;12.63;;
45206;SDS011;30950;53.086;21.576;2023-05-23T04:29:03;20.23;;;13.55;;
45206;SDS011;30950;53.086;21.576;2023-05-23T04:31:32;17.90;;;13.63;;
45206;SDS011;30950;53.086;21.576;2023-05-23T04:34:00;19.05;;;14.43;;
45206;SDS011;30950;53.086;21.576;2023-05-23T04:36:29;19.77;;;13.30;;
45206;SDS011;30950;53.086;21.576;2023-05-23T04:38:57;18.77;;;12.85;;
45206;SDS011;30950;53.086;21.576;2023-05-23T04:41:26;20.13;;;12.82;;
45206;SDS011;30950;53.086;21.576;2023-05-23T04:44:26;18.75;;;12.90;;
45206;SDS011;30950;53.086;21.576;2023-05-23T04:47:25;16.90;;;12.38;;
45206;SDS011;30950;53.086;21.576;2023-05-23T04:50:00;19.67;;;11.55;;
45206;SDS011;30950;53.086;21.576;2023-05-23T04:52:30;15.77;;;11.40;;
45206;SDS011;30950;53.086;21.576;2023-05-23T04:55:00;17.63;;;11.60;;
45206;SDS011;30950;53.086;21.576;2023-05-23T04:57:27;14.80;;;11.40;;
45206;SDS011;30950;53.086;21.576;2023-05-23T04:59:55;15.32;;;10.68;;
45206;SDS011;30950;53.086;21.576;2023-05-23T05:02:24;17.33;;;11.27;;
45206;SDS011;30950;53.086;21.576;2023-05-23T05:04:52;14.70;;;11.02;;
45206;SDS011;30950;53.086;21.576;2023-05-23T05:07:20;16.17;;;10.70;;
45206;SDS011;30950;53.086;21.576;2023-05-23T05:09:47;15.10;;;10.43;;
45206;SDS011;30950;53.086;21.576;2023-05-23T05:12:16;13.75;;;10.57;;
45206;SDS011;30950;53.086;21.576;2023-05-23T05:14:43;18.25;;;10.70;;
45206;SDS011;30950;53.086;21.576;2023-05-23T05:17:11;15.93;;;10.82;;
45206;SDS011;30950;53.086;21.576;2023-05-23T05:19:49;15.35;;;10.38;;
45206;SDS011;30950;53.086;21.576;2023-05-23T05:22:16;21.67;;;9.77;;
45206;SDS011;30950;53.086;21.576;2023-05-23T05:24:44;13.23;;;9.77;;
45206;SDS011;30950;53.086;21.576;2023-05-23T05:27:11;11.80;;;9.27;;
45206;SDS011;30950;53.086;21.576;2023-05-23T05:29:38;14.98;;;10.52;;
45206;SDS011;30950;53.086;21.576;2023-05-23T05:32:05;16.27;;;10.07;;
45206;SDS011;30950;53.086;21.576;2023-05-23T05:34:34;13.90;;;9.63;;
45206;SDS011;30950;53.086;21.576;2023-05-23T05:37:05;13.45;;;9.55;;
45206;SDS011;30950;53.086;21.576;2023-05-23T05:39:32;11.77;;;8.95;;
45206;SDS011;30950;53.086;21.576;2023-05-23T05:42:00;14.63;;;8.75;;
45206;SDS011;30950;53.086;21.576;2023-05-23T05:44:29;9.40;;;7.00;;
45206;SDS011;30950;53.086;21.576;2023-05-23T05:46:57;18.73;;;8.20;;
45206;SDS011;30950;53.086;21.576;2023-05-23T05:49:24;12.70;;;7.22;;
45206;SDS011;30950;53.086;21.576;2023-05-23T05:51:51;13.40;;;7.55;;
45206;SDS011;30950;53.086;21.576;2023-05-23T05:54:19;11.45;;;7.00;;
45206;SDS011;30950;53.086;21.576;2023-05-23T05:56:46;10.35;;;6.68;;
45206;SDS011;30950;53.086;21.576;2023-05-23T05:59:14;8.57;;;6.53;;
45206;SDS011;30950;53.086;21.576;2023-05-23T06:01:43;10.80;;;7.93;;
45206;SDS011;30950;53.086;21.576;2023-05-23T06:04:10;11.93;;;8.05;;
45206;SDS011;30950;53.086;21.576;2023-05-23T06:06:38;9.85;;;7.03;;
45206;SDS011;30950;53.086;21.576;2023-05-23T06:09:07;10.88;;;6.82;;
45206;SDS011;30950;53.086;21.576;2023-05-23T06:11:35;22.67;;;7.57;;
45206;SDS011;30950;53.086;21.576;2023-05-23T06:14:06;9.60;;;6.30;;
45206;SDS011;30950;53.086;21.576;2023-05-23T06:16:37;8.40;;;6.25;;
45206;SDS011;30950;53.086;21.576;2023-05-23T06:19:05;18.27;;;9.73;;
45206;SDS011;30950;53.086;21.576;2023-05-23T06:21:33;15.02;;;7.22;;
45206;SDS011;30950;53.086;21.576;2023-05-23T06:24:02;11.95;;;8.38;;
45206;SDS011;30950;53.086;21.576;2023-05-23T06:26:30;14.90;;;8.20;;
45206;SDS011;30950;53.086;21.576;2023-05-23T06:28:59;12.32;;;8.10;;
45206;SDS011;30950;53.086;21.576;2023-05-23T06:31:26;8.65;;;6.00;;
45206;SDS011;30950;53.086;21.576;2023-05-23T06:33:54;10.23;;;6.90;;
45206;SDS011;30950;53.086;21.576;2023-05-23T06:36:21;11.77;;;7.10;;
45206;SDS011;30950;53.086;21.576;2023-05-23T06:38:48;10.00;;;7.53;;
45206;SDS011;30950;53.086;21.576;2023-05-23T06:41:16;13.05;;;6.78;;
45206;SDS011;30950;53.086;21.576;2023-05-23T06:43:43;31.95;;;7.45;;
45206;SDS011;30950;53.086;21.576;2023-05-23T06:46:13;11.45;;;6.82;;
45206;SDS011;30950;53.086;21.576;2023-05-23T06:48:41;31.90;;;7.82;;
45206;SDS011;30950;53.086;21.576;2023-05-23T06:51:08;14.50;;;6.32;;
45206;SDS011;30950;53.086;21.576;2023-05-23T06:53:37;12.38;;;7.10;;
45206;SDS011;30950;53.086;21.576;2023-05-23T06:56:04;11.80;;;7.35;;
45206;SDS011;30950;53.086;21.576;2023-05-23T06:58:38;7.65;;;5.63;;
45206;SDS011;30950;53.086;21.576;2023-05-23T07:01:06;9.63;;;6.55;;
45206;SDS011;30950;53.086;21.576;2023-05-23T07:03:38;9.40;;;6.60;;
45206;SDS011;30950;53.086;21.576;2023-05-23T07:06:07;9.70;;;5.75;;
45206;SDS011;30950;53.086;21.576;2023-05-23T07:08:36;10.32;;;6.25;;
45206;SDS011;30950;53.086;21.576;2023-05-23T07:11:03;11.40;;;7.63;;
45206;SDS011;30950;53.086;21.576;2023-05-23T07:13:37;11.85;;;5.70;;
45206;SDS011;30950;53.086;21.576;2023-05-23T07:16:04;6.85;;;4.72;;
45206;SDS011;30950;53.086;21.576;2023-05-23T07:18:35;7.55;;;4.93;;
45206;SDS011;30950;53.086;21.576;2023-05-23T07:21:04;13.77;;;5.22;;
45206;SDS011;30950;53.086;21.576;2023-05-23T07:23:32;9.10;;;4.75;;
45206;SDS011;30950;53.086;21.576;2023-05-23T07:26:02;7.20;;;3.90;;
45206;SDS011;30950;53.086;21.576;2023-05-23T07:28:39;10.32;;;4.80;;
45206;SDS011;30950;53.086;21.576;2023-05-23T07:31:07;7.22;;;4.38;;
45206;SDS011;30950;53.086;21.576;2023-05-23T07:33:36;8.20;;;4.95;;
45206;SDS011;30950;53.086;21.576;2023-05-23T07:36:04;7.72;;;4.25;;
45206;SDS011;30950;53.086;21.576;2023-05-23T07:38:32;8.20;;;6.00;;
45206;SDS011;30950;53.086;21.576;2023-05-23T07:40:59;6.25;;;4.35;;
45206;SDS011;30950;53.086;21.576;2023-05-23T07:43:37;13.80;;;3.90;;
45206;SDS011;30950;53.086;21.576;2023-05-23T07:46:05;7.00;;;3.58;;
45206;SDS011;30950;53.086;21.576;2023-05-23T07:48:33;9.00;;;3.88;;
45206;SDS011;30950;53.086;21.576;2023-05-23T07:51:00;8.85;;;4.07;;
45206;SDS011;30950;53.086;21.576;2023-05-23T07:53:28;9.15;;;3.90;;
45206;SDS011;30950;53.086;21.576;2023-05-23T07:55:56;4.82;;;3.28;;
45206;SDS011;30950;53.086;21.576;2023-05-23T07:58:27;10.40;;;4.28;;
45206;SDS011;30950;53.086;21.576;2023-05-23T08:00:54;6.90;;;3.88;;
45206;SDS011;30950;53.086;21.576;2023-05-23T08:03:47;6.05;;;3.45;;
45206;SDS011;30950;53.086;21.576;2023-05-23T08:06:20;5.47;;;3.28;;
45206;SDS011;30950;53.086;21.576;2023-05-23T08:08:47;5.07;;;3.40;;
45206;SDS011;30950;53.086;21.576;2023-05-23T08:11:15;9.43;;;6.43;;
45206;SDS011;30950;53.086;21.576;2023-05-23T08:13:48;7.70;;;4.45;;
45206;SDS011;30950;53.086;21.576;2023-05-23T08:16:33;4.60;;;3.20;;
45206;SDS011;30950;53.086;21.576;2023-05-23T08:19:04;6.68;;;3.92;;
45206;SDS011;30950;53.086;21.576;2023-05-23T08:21:33;21.05;;;14.23;;
45206;SDS011;30950;53.086;21.576;2023-05-23T08:24:02;8.10;;;4.72;;
45206;SDS011;30950;53.086;21.576;2023-05-23T08:26:30;6.45;;;3.95;;
45206;SDS011;30950;53.086;21.576;2023-05-23T08:29:03;7.63;;;3.80;;
45206;SDS011;30950;53.086;21.576;2023-05-23T08:31:31;4.78;;;3.55;;
45206;SDS011;30950;53.086;21.576;2023-05-23T08:34:02;7.90;;;3.80;;
45206;SDS011;30950;53.086;21.576;2023-05-23T08:36:30;8.73;;;3.50;;
45206;SDS011;30950;53.086;21.576;2023-05-23T08:39:03;5.53;;;3.03;;
45206;SDS011;30950;53.086;21.576;2023-05-23T08:41:34;8.55;;;3.45;;
45206;SDS011;30950;53.086;21.576;2023-05-23T08:44:07;5.82;;;3.20;;
45206;SDS011;30950;53.086;21.576;2023-05-23T08:46:43;7.22;;;3.75;;
45206;SDS011;30950;53.086;21.576;2023-05-23T08:49:19;5.35;;;3.28;;
45206;SDS011;30950;53.086;21.576;2023-05-23T08:51:49;5.30;;;3.00;;
45206;SDS011;30950;53.086;21.576;2023-05-23T08:54:21;6.65;;;3.30;;
45206;SDS011;30950;53.086;21.576;2023-05-23T08:56:49;5.63;;;3.95;;
45206;SDS011;30950;53.086;21.576;2023-05-23T08:59:18;4.35;;;3.00;;
45206;SDS011;30950;53.086;21.576;2023-05-23T09:01:47;10.75;;;3.65;;
45206;SDS011;30950;53.086;21.576;2023-05-23T09:04:16;4.63;;;3.50;;
45206;SDS011;30950;53.086;21.576;2023-05-23T09:06:59;8.63;;;3.95;;
45206;SDS011;30950;53.086;21.576;2023-05-23T09:09:29;6.57;;;3.22;;
45206;SDS011;30950;53.086;21.576;2023-05-23T09:11:58;5.53;;;3.42;;
45206;SDS011;30950;53.086;21.576;2023-05-23T09:14:28;7.97;;;3.85;;
45206;SDS011;30950;53.086;21.576;2023-05-23T09:17:03;19.93;;;4.63;;
45206;SDS011;30950;53.086;21.576;2023-05-23T09:19:31;7.18;;;3.33;;
45206;SDS011;30950;53.086;21.576;2023-05-23T09:22:12;7.03;;;4.25;;
45206;SDS011;30950;53.086;21.576;2023-05-23T09:24:55;9.13;;;4.47;;
45206;SDS011;30950;53.086;21.576;2023-05-23T09:27:23;6.95;;;3.17;;
45206;SDS011;30950;53.086;21.576;2023-05-23T09:29:51;6.10;;;3.00;;
45206;SDS011;30950;53.086;21.576;2023-05-23T09:32:19;10.65;;;3.92;;
45206;SDS011;30950;53.086;21.576;2023-05-23T09:34:54;10.07;;;3.58;;
45206;SDS011;30950;53.086;21.576;2023-05-23T09:40:00;5.65;;;3.83;;
45206;SDS011;30950;53.086;21.576;2023-05-23T09:42:32;7.55;;;3.42;;
45206;SDS011;30950;53.086;21.576;2023-05-23T09:45:00;5.40;;;3.85;;
45206;SDS011;30950;53.086;21.576;2023-05-23T09:47:30;6.60;;;3.75;;
45206;SDS011;30950;53.086;21.576;2023-05-23T09:49:58;9.75;;;3.97;;
45206;SDS011;30950;53.086;21.576;2023-05-23T09:52:25;4.82;;;3.60;;
45206;SDS011;30950;53.086;21.576;2023-05-23T09:54:53;5.95;;;3.20;;
45206;SDS011;30950;53.086;21.576;2023-05-23T09:57:21;4.80;;;3.10;;
45206;SDS011;30950;53.086;21.576;2023-05-23T09:59:52;6.00;;;3.72;;
45206;SDS011;30950;53.086;21.576;2023-05-23T10:02:49;4.35;;;3.40;;
45206;SDS011;30950;53.086;21.576;2023-05-23T10:08:29;8.83;;;3.80;;
45206;SDS011;30950;53.086;21.576;2023-05-23T10:13:40;8.35;;;3.50;;
45206;SDS011;30950;53.086;21.576;2023-05-23T10:16:14;7.78;;;3.75;;
45206;SDS011;30950;53.086;21.576;2023-05-23T10:18:54;7.13;;;3.45;;
45206;SDS011;30950;53.086;21.576;2023-05-23T10:21:26;7.88;;;3.20;;
45206;SDS011;30950;53.086;21.576;2023-05-23T10:23:58;5.32;;;3.40;;
45206;SDS011;30950;53.086;21.576;2023-05-23T10:26:26;6.10;;;3.35;;
45206;SDS011;30950;53.086;21.576;2023-05-23T10:28:54;6.50;;;3.63;;
45206;SDS011;30950;53.086;21.576;2023-05-23T10:31:23;8.38;;;3.72;;
45206;SDS011;30950;53.086;21.576;2023-05-23T10:33:55;4.68;;;3.28;;
45206;SDS011;30950;53.086;21.576;2023-05-23T10:36:41;6.72;;;3.53;;
45206;SDS011;30950;53.086;21.576;2023-05-23T10:42:10;8.75;;;3.67;;
45206;SDS011;30950;53.086;21.576;2023-05-23T10:45:06;5.38;;;3.45;;
45206;SDS011;30950;53.086;21.576;2023-05-23T10:47:41;6.18;;;3.72;;
45206;SDS011;30950;53.086;21.576;2023-05-23T10:50:11;5.88;;;3.15;;
45206;SDS011;30950;53.086;21.576;2023-05-23T10:52:40;5.00;;;2.63;;
45206;SDS011;30950;53.086;21.576;2023-05-23T10:55:11;4.55;;;3.10;;
45206;SDS011;30950;53.086;21.576;2023-05-23T10:57:40;6.20;;;3.50;;
45206;SDS011;30950;53.086;21.576;2023-05-23T11:00:13;5.60;;;3.28;;
45206;SDS011;30950;53.086;21.576;2023-05-23T11:02:46;7.72;;;3.22;;
45206;SDS011;30950;53.086;21.576;2023-05-23T11:05:22;7.05;;;4.03;;
45206;SDS011;30950;53.086;21.576;2023-05-23T11:08:10;6.38;;;3.70;;
45206;SDS011;30950;53.086;21.576;2023-05-23T11:13:19;6.15;;;2.97;;
45206;SDS011;30950;53.086;21.576;2023-05-23T11:15:48;6.05;;;3.85;;
45206;SDS011;30950;53.086;21.576;2023-05-23T11:18:19;11.27;;;4.10;;
45206;SDS011;30950;53.086;21.576;2023-05-23T11:20:52;4.28;;;3.20;;
45206;SDS011;30950;53.086;21.576;2023-05-23T11:23:21;5.68;;;3.53;;
45206;SDS011;30950;53.086;21.576;2023-05-23T11:25:50;6.78;;;3.38;;
45206;SDS011;30950;53.086;21.576;2023-05-23T11:28:19;4.25;;;3.55;;
45206;SDS011;30950;53.086;21.576;2023-05-23T11:30:46;6.90;;;3.40;;
45206;SDS011;30950;53.086;21.576;2023-05-23T11:33:15;8.07;;;3.25;;
45206;SDS011;30950;53.086;21.576;2023-05-23T11:35:47;6.03;;;4.15;;
45206;SDS011;30950;53.086;21.576;2023-05-23T11:38:15;8.13;;;4.10;;
45206;SDS011;30950;53.086;21.576;2023-05-23T11:40:44;6.25;;;4.45;;
45206;SDS011;30950;53.086;21.576;2023-05-23T11:43:13;6.90;;;3.60;;
45206;SDS011;30950;53.086;21.576;2023-05-23T11:45:42;6.60;;;3.30;;
45206;SDS011;30950;53.086;21.576;2023-05-23T11:48:10;6.10;;;3.70;;
45206;SDS011;30950;53.086;21.576;2023-05-23T11:53:16;4.45;;;3.30;;
45206;SDS011;30950;53.086;21.576;2023-05-23T11:55:53;5.63;;;3.65;;
45206;SDS011;30950;53.086;21.576;2023-05-23T11:58:24;5.18;;;3.10;;
45206;SDS011;30950;53.086;21.576;2023-05-23T12:03:29;4.30;;;3.08;;
45206;SDS011;30950;53.086;21.576;2023-05-23T12:05:57;5.82;;;3.10;;
45206;SDS011;30950;53.086;21.576;2023-05-23T12:08:25;5.35;;;3.33;;
45206;SDS011;30950;53.086;21.576;2023-05-23T12:10:53;20.08;;;15.05;;
45206;SDS011;30950;53.086;21.576;2023-05-23T12:13:24;5.13;;;2.97;;
45206;SDS011;30950;53.086;21.576;2023-05-23T12:15:54;6.38;;;2.80;;
45206;SDS011;30950;53.086;21.576;2023-05-23T12:18:23;6.55;;;3.42;;
45206;SDS011;30950;53.086;21.576;2023-05-23T12:20:53;8.88;;;3.78;;
45206;SDS011;30950;53.086;21.576;2023-05-23T12:23:20;5.53;;;3.40;;
45206;SDS011;30950;53.086;21.576;2023-05-23T12:25:49;8.57;;;2.78;;
45206;SDS011;30950;53.086;21.576;2023-05-23T12:28:21;4.60;;;3.42;;
45206;SDS011;30950;53.086;21.576;2023-05-23T12:31:18;4.45;;;3.25;;
45206;SDS011;30950;53.086;21.576;2023-05-23T12:33:48;4.93;;;2.97;;
45206;SDS011;30950;53.086;21.576;2023-05-23T12:36:22;6.90;;;4.15;;
45206;SDS011;30950;53.086;21.576;2023-05-23T12:38:51;5.15;;;3.17;;
45206;SDS011;30950;53.086;21.576;2023-05-23T12:41:19;8.95;;;3.13;;
45206;SDS011;30950;53.086;21.576;2023-05-23T12:43:49;6.43;;;4.13;;
45206;SDS011;30950;53.086;21.576;2023-05-23T12:46:18;5.88;;;3.08;;
45206;SDS011;30950;53.086;21.576;2023-05-23T12:48:50;4.40;;;3.10;;
45206;SDS011;30950;53.086;21.576;2023-05-23T12:51:18;4.63;;;3.50;;
45206;SDS011;30950;53.086;21.576;2023-05-23T12:53:46;3.90;;;3.25;;
45206;SDS011;30950;53.086;21.576;2023-05-23T12:56:13;6.65;;;3.30;;
45206;SDS011;30950;53.086;21.576;2023-05-23T12:58:41;10.30;;;3.40;;
45206;SDS011;30950;53.086;21.576;2023-05-23T13:01:09;7.80;;;4.38;;
45206;SDS011;30950;53.086;21.576;2023-05-23T13:03:37;6.05;;;3.25;;
45206;SDS011;30950;53.086;21.576;2023-05-23T13:06:04;5.38;;;3.22;;
45206;SDS011;30950;53.086;21.576;2023-05-23T13:08:32;4.80;;;3.17;;
45206;SDS011;30950;53.086;21.576;2023-05-23T13:10:59;6.45;;;3.25;;
45206;SDS011;30950;53.086;21.576;2023-05-23T13:13:27;4.65;;;3.38;;
45206;SDS011;30950;53.086;21.576;2023-05-23T13:15:54;6.80;;;3.67;;
45206;SDS011;30950;53.086;21.576;2023-05-23T13:18:22;5.25;;;3.00;;
45206;SDS011;30950;53.086;21.576;2023-05-23T13:20:49;4.55;;;3.30;;
45206;SDS011;30950;53.086;21.576;2023-05-23T13:23:17;6.93;;;3.05;;
45206;SDS011;30950;53.086;21.576;2023-05-23T13:25:44;5.00;;;3.70;;
45206;SDS011;30950;53.086;21.576;2023-05-23T13:28:12;4.72;;;2.80;;
45206;SDS011;30950;53.086;21.576;2023-05-23T13:30:39;5.22;;;2.67;;
45206;SDS011;30950;53.086;21.576;2023-05-23T13:33:09;4.22;;;2.75;;
45206;SDS011;30950;53.086;21.576;2023-05-23T13:35:37;5.45;;;3.42;;
45206;SDS011;30950;53.086;21.576;2023-05-23T13:38:04;5.38;;;3.63;;
45206;SDS011;30950;53.086;21.576;2023-05-23T13:40:31;3.97;;;3.13;;
45206;SDS011;30950;53.086;21.576;2023-05-23T13:42:59;5.97;;;3.80;;
45206;SDS011;30950;53.086;21.576;2023-05-23T13:45:26;6.63;;;4.38;;
45206;SDS011;30950;53.086;21.576;2023-05-23T13:47:54;5.80;;;3.90;;
45206;SDS011;30950;53.086;21.576;2023-05-23T13:50:21;4.30;;;3.20;;
45206;SDS011;30950;53.086;21.576;2023-05-23T13:52:49;7.28;;;3.47;;
45206;SDS011;30950;53.086;21.576;2023-05-23T13:55:16;6.63;;;3.20;;
45206;SDS011;30950;53.086;21.576;2023-05-23T13:57:44;3.97;;;2.95;;
45206;SDS011;30950;53.086;21.576;2023-05-23T14:00:12;5.50;;;3.20;;
45206;SDS011;30950;53.086;21.576;2023-05-23T14:02:40;4.93;;;3.50;;
45206;SDS011;30950;53.086;21.576;2023-05-23T14:05:07;4.43;;;3.70;;
45206;SDS011;30950;53.086;21.576;2023-05-23T14:07:35;4.50;;;3.10;;
45206;SDS011;30950;53.086;21.576;2023-05-23T14:10:03;7.20;;;3.58;;
45206;SDS011;30950;53.086;21.576;2023-05-23T14:12:33;6.40;;;3.75;;
45206;SDS011;30950;53.086;21.576;2023-05-23T14:15:00;6.00;;;3.58;;
45206;SDS011;30950;53.086;21.576;2023-05-23T14:17:27;6.88;;;3.63;;
45206;SDS011;30950;53.086;21.576;2023-05-23T14:19:54;4.85;;;3.47;;
45206;SDS011;30950;53.086;21.576;2023-05-23T14:22:22;5.45;;;3.90;;
45206;SDS011;30950;53.086;21.576;2023-05-23T14:24:49;6.82;;;4.13;;
45206;SDS011;30950;53.086;21.576;2023-05-23T14:27:16;9.50;;;7.90;;
45206;SDS011;30950;53.086;21.576;2023-05-23T14:29:45;6.13;;;4.22;;
45206;SDS011;30950;53.086;21.576;2023-05-23T14:32:13;9.35;;;4.25;;
45206;SDS011;30950;53.086;21.576;2023-05-23T14:34:40;6.05;;;3.97;;
45206;SDS011;30950;53.086;21.576;2023-05-23T14:37:07;7.50;;;3.35;;
45206;SDS011;30950;53.086;21.576;2023-05-23T14:39:34;5.07;;;3.85;;
45206;SDS011;30950;53.086;21.576;2023-05-23T14:42:02;10.43;;;5.38;;
45206;SDS011;30950;53.086;21.576;2023-05-23T14:44:30;5.00;;;3.45;;
45206;SDS011;30950;53.086;21.576;2023-05-23T14:46:57;4.68;;;3.40;;
45206;SDS011;30950;53.086;21.576;2023-05-23T14:49:24;7.80;;;3.10;;
45206;SDS011;30950;53.086;21.576;2023-05-23T14:51:52;7.13;;;3.63;;
45206;SDS011;30950;53.086;21.576;2023-05-23T14:54:19;5.22;;;3.63;;
45206;SDS011;30950;53.086;21.576;2023-05-23T14:56:46;6.47;;;3.63;;
45206;SDS011;30950;53.086;21.576;2023-05-23T14:59:16;6.13;;;4.03;;
45206;SDS011;30950;53.086;21.576;2023-05-23T15:01:44;5.55;;;3.78;;
45206;SDS011;30950;53.086;21.576;2023-05-23T15:04:12;5.00;;;3.33;;